sensor_id;sensor_type;location;lat;lon;timestamp;pressure;altitude;pressure_sealevel;temperature;humidity
48390;BME280;34643;47.964;7.982;2022-07-22T00:03:04;97055.63;;;24.26;47.05
48390;BME280;34643;47.964;7.982;2022-07-22T00:08:05;97049.59;;;24.16;47.38
48390;BME280;34643;47.964;7.982;2022-07-22T00:13:05;97046.97;;;24.16;47.19
48390;BME280;34643;47.964;7.982;2022-07-22T00:18:05;97048.63;;;24.17;47.46
48390;BME280;34643;47.964;7.982;2022-07-22T00:23:06;97043.88;;;24.20;47.39
48390;BME280;34643;47.964;7.982;2022-07-22T00:28:06;97039.38;;;24.13;47.29
48390;BME280;34643;47.964;7.982;2022-07-22T00:33:06;97031.81;;;24.18;47.38
48390;BME280;34643;47.964;7.982;2022-07-22T00:38:06;97026.09;;;24.22;47.38
48390;BME280;34643;47.964;7.982;2022-07-22T00:43:07;97020.53;;;24.25;47.18
48390;BME280;34643;47.964;7.982;2022-07-22T00:48:07;97015.84;;;24.19;47.36
48390;BME280;34643;47.964;7.982;2022-07-22T00:53:07;97013.34;;;24.18;46.90
48390;BME280;34643;47.964;7.982;2022-07-22T00:58:07;97014.63;;;24.14;46.88
48390;BME280;34643;47.964;7.982;2022-07-22T01:03:08;97013.44;;;24.08;46.97
48390;BME280;34643;47.964;7.982;2022-07-22T01:08:08;97010.03;;;24.16;47.31
48390;BME280;34643;47.964;7.982;2022-07-22T01:13:09;97006.06;;;24.12;47.04
48390;BME280;34643;47.964;7.982;2022-07-22T01:18:09;97003.84;;;24.07;47.19
48390;BME280;34643;47.964;7.982;2022-07-22T01:23:09;97009.00;;;24.08;47.24
48390;BME280;34643;47.964;7.982;2022-07-22T01:28:10;97004.25;;;24.12;46.94
48390;BME280;34643;47.964;7.982;2022-07-22T01:33:11;97000.41;;;24.06;47.16
48390;BME280;34643;47.964;7.982;2022-07-22T01:38:11;97001.06;;;24.08;47.15
48390;BME280;34643;47.964;7.982;2022-07-22T01:43:12;97000.63;;;23.95;46.96
48390;BME280;34643;47.964;7.982;2022-07-22T01:48:18;97006.06;;;23.94;47.29
48390;BME280;34643;47.964;7.982;2022-07-22T01:53:19;96996.56;;;24.01;47.37
48390;BME280;34643;47.964;7.982;2022-07-22T01:58:21;96994.91;;;24.00;47.10
48390;BME280;34643;47.964;7.982;2022-07-22T02:03:21;97005.44;;;24.00;46.93
48390;BME280;34643;47.964;7.982;2022-07-22T02:08:22;97001.16;;;23.81;47.14
48390;BME280;34643;47.964;7.982;2022-07-22T02:13:42;97000.44;;;23.79;47.10
48390;BME280;34643;47.964;7.982;2022-07-22T02:18:42;96995.09;;;23.70;47.14
48390;BME280;34643;47.964;7.982;2022-07-22T02:23:43;96989.53;;;23.73;47.27
48390;BME280;34643;47.964;7.982;2022-07-22T02:28:44;96983.94;;;23.77;47.22
48390;BME280;34643;47.964;7.982;2022-07-22T02:33:45;96991.69;;;23.78;47.13
48390;BME280;34643;47.964;7.982;2022-07-22T02:38:45;96980.09;;;23.71;47.17
48390;BME280;34643;47.964;7.982;2022-07-22T02:43:46;96987.72;;;23.74;47.19
48390;BME280;34643;47.964;7.982;2022-07-22T02:48:46;96989.00;;;23.70;47.23
48390;BME280;34643;47.964;7.982;2022-07-22T02:53:50;96988.16;;;23.69;47.11
48390;BME280;34643;47.964;7.982;2022-07-22T02:58:51;96986.50;;;23.68;47.27
48390;BME280;34643;47.964;7.982;2022-07-22T03:03:53;96982.19;;;23.67;46.76
48390;BME280;34643;47.964;7.982;2022-07-22T03:08:54;96975.34;;;23.57;46.94
48390;BME280;34643;47.964;7.982;2022-07-22T03:13:54;96972.19;;;23.53;47.26
48390;BME280;34643;47.964;7.982;2022-07-22T03:18:55;96970.47;;;23.62;47.21
48390;BME280;34643;47.964;7.982;2022-07-22T03:23:55;96973.53;;;23.57;47.10
48390;BME280;34643;47.964;7.982;2022-07-22T03:28:56;96972.28;;;23.61;47.40
48390;BME280;34643;47.964;7.982;2022-07-22T03:33:56;96969.94;;;23.58;47.34
48390;BME280;34643;47.964;7.982;2022-07-22T03:38:57;96964.28;;;23.71;46.90
48390;BME280;34643;47.964;7.982;2022-07-22T03:43:57;96971.69;;;24.03;46.31
48390;BME280;34643;47.964;7.982;2022-07-22T03:48:58;96968.69;;;24.16;46.36
48390;BME280;34643;47.964;7.982;2022-07-22T03:53:59;96962.66;;;24.24;46.52
48390;BME280;34643;47.964;7.982;2022-07-22T03:58:59;96958.56;;;24.29;46.32
48390;BME280;34643;47.964;7.982;2022-07-22T04:03:59;96955.47;;;24.34;46.29
48390;BME280;34643;47.964;7.982;2022-07-22T04:09:06;96953.22;;;24.39;46.09
48390;BME280;34643;47.964;7.982;2022-07-22T04:14:08;96952.88;;;24.42;46.38
48390;BME280;34643;47.964;7.982;2022-07-22T04:19:09;96936.75;;;24.45;46.27
48390;BME280;34643;47.964;7.982;2022-07-22T04:24:27;96942.38;;;24.51;46.49
48390;BME280;34643;47.964;7.982;2022-07-22T04:29:29;96947.56;;;23.44;46.56
48390;BME280;34643;47.964;7.982;2022-07-22T04:34:29;96940.28;;;22.63;49.30
48390;BME280;34643;47.964;7.982;2022-07-22T04:39:31;96938.69;;;22.43;49.80
48390;BME280;34643;47.964;7.982;2022-07-22T04:44:32;96933.69;;;22.49;49.53
48390;BME280;34643;47.964;7.982;2022-07-22T04:49:33;96928.88;;;22.35;49.65
48390;BME280;34643;47.964;7.982;2022-07-22T04:54:34;96933.03;;;22.18;50.00
48390;BME280;34643;47.964;7.982;2022-07-22T04:59:35;96934.56;;;22.11;50.01
48390;BME280;34643;47.964;7.982;2022-07-22T05:04:36;96917.66;;;22.13;50.39
48390;BME280;34643;47.964;7.982;2022-07-22T05:09:36;96928.56;;;22.18;50.07
48390;BME280;34643;47.964;7.982;2022-07-22T05:14:37;96925.41;;;22.25;50.03
48390;BME280;34643;47.964;7.982;2022-07-22T05:19:38;96927.63;;;22.39;49.84
48390;BME280;34643;47.964;7.982;2022-07-22T05:24:41;96926.34;;;22.43;50.09
48390;BME280;34643;47.964;7.982;2022-07-22T05:29:41;96921.09;;;22.43;50.06
48390;BME280;34643;47.964;7.982;2022-07-22T05:34:41;96920.63;;;22.67;50.30
48390;BME280;34643;47.964;7.982;2022-07-22T05:39:42;96920.47;;;22.69;49.78
48390;BME280;34643;47.964;7.982;2022-07-22T05:44:43;96920.69;;;22.48;50.55
48390;BME280;34643;47.964;7.982;2022-07-22T05:49:43;96912.78;;;22.85;50.28
48390;BME280;34643;47.964;7.982;2022-07-22T05:54:44;96917.09;;;23.14;49.37
48390;BME280;34643;47.964;7.982;2022-07-22T05:59:45;96915.50;;;23.31;48.80
48390;BME280;34643;47.964;7.982;2022-07-22T06:04:46;96916.56;;;23.38;49.03
48390;BME280;34643;47.964;7.982;2022-07-22T06:09:48;96928.00;;;23.47;48.65
48390;BME280;34643;47.964;7.982;2022-07-22T06:14:49;96919.78;;;23.50;48.39
48390;BME280;34643;47.964;7.982;2022-07-22T06:19:50;96917.53;;;23.55;48.61
48390;BME280;34643;47.964;7.982;2022-07-22T06:24:50;96923.19;;;23.60;48.60
48390;BME280;34643;47.964;7.982;2022-07-22T06:29:51;96917.31;;;23.66;48.02
48390;BME280;34643;47.964;7.982;2022-07-22T06:34:51;96923.13;;;23.70;48.08
48390;BME280;34643;47.964;7.982;2022-07-22T06:39:52;96920.00;;;23.75;47.94
48390;BME280;34643;47.964;7.982;2022-07-22T06:44:56;96919.56;;;23.79;47.90
48390;BME280;34643;47.964;7.982;2022-07-22T06:50:10;96911.22;;;23.84;47.93
48390;BME280;34643;47.964;7.982;2022-07-22T06:55:11;96908.97;;;23.89;48.23
48390;BME280;34643;47.964;7.982;2022-07-22T07:00:17;96897.16;;;23.93;48.44
48390;BME280;34643;47.964;7.982;2022-07-22T07:05:37;96894.19;;;23.96;48.73
48390;BME280;34643;47.964;7.982;2022-07-22T07:10:38;96889.44;;;24.00;48.86
48390;BME280;34643;47.964;7.982;2022-07-22T07:15:46;96891.78;;;24.03;48.87
48390;BME280;34643;47.964;7.982;2022-07-22T07:20:48;96881.75;;;24.06;48.58
48390;BME280;34643;47.964;7.982;2022-07-22T07:25:48;96885.06;;;24.08;48.65
48390;BME280;34643;47.964;7.982;2022-07-22T07:30:50;96883.09;;;24.10;48.93
48390;BME280;34643;47.964;7.982;2022-07-22T07:35:51;96878.34;;;24.14;48.56
48390;BME280;34643;47.964;7.982;2022-07-22T07:41:00;96872.75;;;24.17;48.87
48390;BME280;34643;47.964;7.982;2022-07-22T07:46:01;96885.66;;;24.20;48.56
48390;BME280;34643;47.964;7.982;2022-07-22T07:51:01;96882.00;;;24.21;48.81
48390;BME280;34643;47.964;7.982;2022-07-22T07:56:02;96882.53;;;24.25;48.56
48390;BME280;34643;47.964;7.982;2022-07-22T08:01:03;96881.56;;;24.26;49.07
48390;BME280;34643;47.964;7.982;2022-07-22T08:06:03;96881.25;;;24.29;49.06
48390;BME280;34643;47.964;7.982;2022-07-22T08:11:04;96876.66;;;24.31;48.90
48390;BME280;34643;47.964;7.982;2022-07-22T08:16:04;96882.44;;;24.35;49.04
48390;BME280;34643;47.964;7.982;2022-07-22T08:21:06;96877.16;;;24.35;48.86
48390;BME280;34643;47.964;7.982;2022-07-22T08:26:13;96870.72;;;24.37;48.97
48390;BME280;34643;47.964;7.982;2022-07-22T08:31:14;96872.41;;;24.38;48.90
48390;BME280;34643;47.964;7.982;2022-07-22T08:36:14;96874.56;;;24.43;48.79
48390;BME280;34643;47.964;7.982;2022-07-22T08:41:14;96872.09;;;24.41;48.87
48390;BME280;34643;47.964;7.982;2022-07-22T08:46:15;96859.56;;;24.43;48.97
48390;BME280;34643;47.964;7.982;2022-07-22T08:51:34;96845.22;;;24.46;48.77
48390;BME280;34643;47.964;7.982;2022-07-22T08:56:50;96836.34;;;24.47;48.68
48390;BME280;34643;47.964;7.982;2022-07-22T09:02:02;96838.81;;;24.48;48.47
48390;BME280;34643;47.964;7.982;2022-07-22T09:07:04;96835.03;;;24.51;48.64
48390;BME280;34643;47.964;7.982;2022-07-22T09:12:05;96837.50;;;24.53;48.52
48390;BME280;34643;47.964;7.982;2022-07-22T09:17:33;96832.94;;;24.55;48.67
48390;BME280;34643;47.964;7.982;2022-07-22T09:23:17;96833.78;;;24.55;48.52
48390;BME280;34643;47.964;7.982;2022-07-22T09:28:22;96824.72;;;24.58;48.58
48390;BME280;34643;47.964;7.982;2022-07-22T09:33:41;96826.38;;;24.59;48.52
48390;BME280;34643;47.964;7.982;2022-07-22T09:38:54;96823.53;;;24.60;48.58
48390;BME280;34643;47.964;7.982;2022-07-22T09:43:54;96827.69;;;24.63;48.35
48390;BME280;34643;47.964;7.982;2022-07-22T09:48:54;96824.06;;;24.64;48.47
48390;BME280;34643;47.964;7.982;2022-07-22T09:54:24;96823.09;;;24.65;48.49
48390;BME280;34643;47.964;7.982;2022-07-22T09:59:26;96829.84;;;24.67;48.57
48390;BME280;34643;47.964;7.982;2022-07-22T10:04:46;96825.41;;;24.68;48.40
48390;BME280;34643;47.964;7.982;2022-07-22T10:09:47;96818.16;;;24.70;48.55
48390;BME280;34643;47.964;7.982;2022-07-22T10:14:48;96819.78;;;24.71;48.73
48390;BME280;34643;47.964;7.982;2022-07-22T10:19:49;96815.38;;;24.72;48.31
48390;BME280;34643;47.964;7.982;2022-07-22T10:25:09;96809.94;;;24.73;48.71
48390;BME280;34643;47.964;7.982;2022-07-22T10:30:09;96803.66;;;24.74;48.56
48390;BME280;34643;47.964;7.982;2022-07-22T10:40:18;96803.34;;;24.77;48.73
48390;BME280;34643;47.964;7.982;2022-07-22T10:45:22;96789.16;;;24.78;48.60
48390;BME280;34643;47.964;7.982;2022-07-22T10:55:39;96774.34;;;24.85;48.44
48390;BME280;34643;47.964;7.982;2022-07-22T11:00:58;96767.06;;;24.88;48.57
48390;BME280;34643;47.964;7.982;2022-07-22T11:06:15;96766.91;;;24.89;48.65
48390;BME280;34643;47.964;7.982;2022-07-22T11:11:16;96761.44;;;24.91;48.78
48390;BME280;34643;47.964;7.982;2022-07-22T11:16:20;96763.09;;;24.92;48.89
48390;BME280;34643;47.964;7.982;2022-07-22T11:21:25;96760.16;;;24.95;49.01
48390;BME280;34643;47.964;7.982;2022-07-22T11:26:31;96761.13;;;24.94;48.76
48390;BME280;34643;47.964;7.982;2022-07-22T11:31:33;96752.06;;;24.96;48.90
48390;BME280;34643;47.964;7.982;2022-07-22T11:36:34;96758.00;;;24.98;49.02
48390;BME280;34643;47.964;7.982;2022-07-22T11:41:35;96738.72;;;24.98;48.98
48390;BME280;34643;47.964;7.982;2022-07-22T11:46:36;96744.00;;;24.98;48.99
48390;BME280;34643;47.964;7.982;2022-07-22T11:51:37;96743.81;;;24.99;49.08
48390;BME280;34643;47.964;7.982;2022-07-22T11:56:37;96735.72;;;25.01;48.82
48390;BME280;34643;47.964;7.982;2022-07-22T12:01:38;96732.91;;;25.02;49.15
48390;BME280;34643;47.964;7.982;2022-07-22T12:06:39;96732.75;;;25.04;48.96
48390;BME280;34643;47.964;7.982;2022-07-22T12:11:40;96726.50;;;25.05;49.16
48390;BME280;34643;47.964;7.982;2022-07-22T12:16:42;96724.53;;;25.07;49.06
48390;BME280;34643;47.964;7.982;2022-07-22T12:26:59;96733.09;;;25.09;48.84
48390;BME280;34643;47.964;7.982;2022-07-22T12:32:45;96718.06;;;25.10;49.26
48390;BME280;34643;47.964;7.982;2022-07-22T12:42:28;96696.63;;;25.13;49.15
48390;BME280;34643;47.964;7.982;2022-07-22T12:47:39;96696.47;;;25.14;49.12
48390;BME280;34643;47.964;7.982;2022-07-22T12:52:39;96688.38;;;25.16;49.05
48390;BME280;34643;47.964;7.982;2022-07-22T12:57:39;96690.00;;;25.17;49.17
48390;BME280;34643;47.964;7.982;2022-07-22T13:02:40;96690.81;;;25.17;48.98
48390;BME280;34643;47.964;7.982;2022-07-22T13:07:40;96693.31;;;25.19;49.11
48390;BME280;34643;47.964;7.982;2022-07-22T13:12:41;96686.22;;;25.19;49.03
48390;BME280;34643;47.964;7.982;2022-07-22T13:17:41;96694.00;;;25.21;48.95
48390;BME280;34643;47.964;7.982;2022-07-22T13:22:42;96695.63;;;25.22;49.14
48390;BME280;34643;47.964;7.982;2022-07-22T13:27:42;96693.81;;;25.22;48.76
48390;BME280;34643;47.964;7.982;2022-07-22T13:32:43;96691.88;;;25.25;49.04
48390;BME280;34643;47.964;7.982;2022-07-22T13:37:46;96687.41;;;25.25;49.00
48390;BME280;34643;47.964;7.982;2022-07-22T13:42:46;96693.50;;;25.26;49.02
48390;BME280;34643;47.964;7.982;2022-07-22T13:47:47;96687.25;;;25.27;48.89
48390;BME280;34643;47.964;7.982;2022-07-22T13:52:47;96694.16;;;25.28;48.94
48390;BME280;34643;47.964;7.982;2022-07-22T13:57:47;96684.44;;;25.28;49.14
48390;BME280;34643;47.964;7.982;2022-07-22T14:02:48;96685.25;;;25.29;48.80
48390;BME280;34643;47.964;7.982;2022-07-22T14:07:48;96694.66;;;25.31;48.93
48390;BME280;34643;47.964;7.982;2022-07-22T14:12:48;96692.84;;;25.32;48.69
48390;BME280;34643;47.964;7.982;2022-07-22T14:17:50;96689.88;;;25.35;48.81
48390;BME280;34643;47.964;7.982;2022-07-22T14:22:50;96688.22;;;25.34;48.84
48390;BME280;34643;47.964;7.982;2022-07-22T14:27:50;96698.63;;;25.35;48.82
48390;BME280;34643;47.964;7.982;2022-07-22T14:32:51;96690.53;;;25.37;48.72
48390;BME280;34643;47.964;7.982;2022-07-22T14:37:51;96694.00;;;25.37;48.61
48390;BME280;34643;47.964;7.982;2022-07-22T14:42:51;96697.47;;;25.38;48.69
48390;BME280;34643;47.964;7.982;2022-07-22T14:47:52;96688.56;;;25.39;48.81
48390;BME280;34643;47.964;7.982;2022-07-22T14:52:52;96685.72;;;25.40;48.73
48390;BME280;34643;47.964;7.982;2022-07-22T14:57:52;96691.84;;;25.41;48.54
48390;BME280;34643;47.964;7.982;2022-07-22T15:02:52;96687.38;;;25.41;48.50
48390;BME280;34643;47.964;7.982;2022-07-22T15:07:53;96683.75;;;25.42;48.58
48390;BME280;34643;47.964;7.982;2022-07-22T15:12:53;96681.94;;;25.43;48.24
48390;BME280;34643;47.964;7.982;2022-07-22T15:17:53;96680.13;;;25.43;48.48
48390;BME280;34643;47.964;7.982;2022-07-22T15:22:54;96670.41;;;25.44;48.25
48390;BME280;34643;47.964;7.982;2022-07-22T15:27:54;96670.19;;;25.46;48.37
48390;BME280;34643;47.964;7.982;2022-07-22T15:32:54;96662.47;;;25.44;48.22
48390;BME280;34643;47.964;7.982;2022-07-22T15:37:54;96654.34;;;25.46;48.24
48390;BME280;34643;47.964;7.982;2022-07-22T15:42:55;96654.34;;;25.46;48.06
48390;BME280;34643;47.964;7.982;2022-07-22T15:47:55;96649.91;;;25.46;48.09
48390;BME280;34643;47.964;7.982;2022-07-22T15:52:55;96652.38;;;25.48;47.86
48390;BME280;34643;47.964;7.982;2022-07-22T15:57:56;96649.53;;;25.49;47.80
48390;BME280;34643;47.964;7.982;2022-07-22T16:03:15;96649.53;;;25.49;48.02
48390;BME280;34643;47.964;7.982;2022-07-22T16:08:15;96645.28;;;25.48;47.73
48390;BME280;34643;47.964;7.982;2022-07-22T16:13:15;96645.94;;;25.50;47.75
48390;BME280;34643;47.964;7.982;2022-07-22T16:18:16;96637.84;;;25.52;47.73
48390;BME280;34643;47.964;7.982;2022-07-22T16:23:16;96628.06;;;25.52;47.56
48390;BME280;34643;47.964;7.982;2022-07-22T16:28:16;96623.59;;;25.53;47.27
48390;BME280;34643;47.964;7.982;2022-07-22T16:33:17;96613.03;;;25.53;47.49
48390;BME280;34643;47.964;7.982;2022-07-22T16:38:17;96621.81;;;25.53;47.37
48390;BME280;34643;47.964;7.982;2022-07-22T16:43:17;96619.16;;;25.53;47.31
48390;BME280;34643;47.964;7.982;2022-07-22T16:48:17;96617.34;;;25.54;47.18
48390;BME280;34643;47.964;7.982;2022-07-22T16:53:18;96616.53;;;25.53;47.46
48390;BME280;34643;47.964;7.982;2022-07-22T16:58:18;96620.81;;;25.54;47.23
48390;BME280;34643;47.964;7.982;2022-07-22T17:03:19;96626.94;;;25.55;47.43
48390;BME280;34643;47.964;7.982;2022-07-22T17:08:19;96632.22;;;25.55;47.39
48390;BME280;34643;47.964;7.982;2022-07-22T17:13:19;96628.72;;;25.54;47.28
48390;BME280;34643;47.964;7.982;2022-07-22T17:18:20;96628.56;;;25.56;47.55
48390;BME280;34643;47.964;7.982;2022-07-22T17:23:20;96632.88;;;25.57;47.41
48390;BME280;34643;47.964;7.982;2022-07-22T17:28:20;96637.31;;;25.56;47.20
48390;BME280;34643;47.964;7.982;2022-07-22T17:33:22;96644.25;;;25.57;47.44
48390;BME280;34643;47.964;7.982;2022-07-22T17:38:22;96649.53;;;25.57;47.31
48390;BME280;34643;47.964;7.982;2022-07-22T17:43:23;96651.38;;;25.57;47.49
48390;BME280;34643;47.964;7.982;2022-07-22T17:48:23;96657.31;;;25.59;47.21
48390;BME280;34643;47.964;7.982;2022-07-22T17:53:23;96664.22;;;25.60;47.42
48390;BME280;34643;47.964;7.982;2022-07-22T17:58:24;96659.13;;;25.58;47.19
48390;BME280;34643;47.964;7.982;2022-07-22T18:03:24;96671.97;;;25.70;48.12
48390;BME280;34643;47.964;7.982;2022-07-22T18:08:24;96671.16;;;25.69;47.74
48390;BME280;34643;47.964;7.982;2022-07-22T18:13:25;96666.38;;;25.65;47.84
48390;BME280;34643;47.964;7.982;2022-07-22T18:18:25;96669.97;;;25.72;47.84
48390;BME280;34643;47.964;7.982;2022-07-22T18:23:26;96670.31;;;25.69;48.06
48390;BME280;34643;47.964;7.982;2022-07-22T18:28:26;96684.00;;;25.72;48.01
48390;BME280;34643;47.964;7.982;2022-07-22T18:33:26;96682.38;;;25.71;47.91
48390;BME280;34643;47.964;7.982;2022-07-22T18:38:27;96700.72;;;25.73;47.61
48390;BME280;34643;47.964;7.982;2022-07-22T18:43:27;96722.53;;;25.75;47.47
48390;BME280;34643;47.964;7.982;2022-07-22T18:48:28;96740.38;;;25.73;47.61
48390;BME280;34643;47.964;7.982;2022-07-22T18:53:28;96743.00;;;25.73;47.81
48390;BME280;34643;47.964;7.982;2022-07-22T18:58:28;96756.41;;;25.71;47.68
48390;BME280;34643;47.964;7.982;2022-07-22T19:03:28;96763.31;;;25.72;47.79
48390;BME280;34643;47.964;7.982;2022-07-22T19:08:29;96781.00;;;25.72;47.86
48390;BME280;34643;47.964;7.982;2022-07-22T19:13:29;96786.28;;;25.72;47.65
48390;BME280;34643;47.964;7.982;2022-07-22T19:18:29;96788.94;;;25.72;47.79
48390;BME280;34643;47.964;7.982;2022-07-22T19:23:30;96797.03;;;25.70;47.87
48390;BME280;34643;47.964;7.982;2022-07-22T19:28:30;96794.38;;;25.70;47.72
48390;BME280;34643;47.964;7.982;2022-07-22T19:33:30;96808.25;;;25.72;47.52
48390;BME280;34643;47.964;7.982;2022-07-22T19:38:31;96826.94;;;25.71;47.56
48390;BME280;34643;47.964;7.982;2022-07-22T19:43:31;96816.69;;;25.68;47.62
48390;BME280;34643;47.964;7.982;2022-07-22T19:48:32;96824.28;;;25.63;47.84
48390;BME280;34643;47.964;7.982;2022-07-22T19:53:32;96830.22;;;25.65;47.82
48390;BME280;34643;47.964;7.982;2022-07-22T19:58:33;96850.56;;;25.64;47.78
48390;BME280;34643;47.964;7.982;2022-07-22T20:03:35;96847.25;;;25.62;47.73
48390;BME280;34643;47.964;7.982;2022-07-22T20:08:36;96839.81;;;25.57;47.69
48390;BME280;34643;47.964;7.982;2022-07-22T20:13:36;96843.78;;;25.53;47.71
48390;BME280;34643;47.964;7.982;2022-07-22T20:18:37;96855.66;;;25.49;48.14
48390;BME280;34643;47.964;7.982;2022-07-22T20:23:37;96834.72;;;25.48;48.38
48390;BME280;34643;47.964;7.982;2022-07-22T20:28:37;96816.84;;;25.33;48.69
48390;BME280;34643;47.964;7.982;2022-07-22T20:33:38;96801.47;;;25.37;48.53
48390;BME280;34643;47.964;7.982;2022-07-22T20:38:38;96798.84;;;25.37;48.46
48390;BME280;34643;47.964;7.982;2022-07-22T20:43:38;96783.66;;;25.31;48.13
48390;BME280;34643;47.964;7.982;2022-07-22T20:48:39;96780.69;;;25.26;48.10
48390;BME280;34643;47.964;7.982;2022-07-22T20:53:42;96829.88;;;25.35;47.90
48390;BME280;34643;47.964;7.982;2022-07-22T20:58:42;96781.00;;;25.31;47.76
48390;BME280;34643;47.964;7.982;2022-07-22T21:03:42;96772.09;;;25.40;47.70
48390;BME280;34643;47.964;7.982;2022-07-22T21:08:43;96782.81;;;25.38;47.70
48390;BME280;34643;47.964;7.982;2022-07-22T21:13:43;96786.31;;;25.39;48.04
48390;BME280;34643;47.964;7.982;2022-07-22T21:18:43;96739.91;;;25.36;47.85
48390;BME280;34643;47.964;7.982;2022-07-22T21:23:44;96729.34;;;25.36;47.96
48390;BME280;34643;47.964;7.982;2022-07-22T21:28:44;96731.50;;;25.41;48.15
48390;BME280;34643;47.964;7.982;2022-07-22T21:33:44;96784.00;;;25.44;49.01
48390;BME280;34643;47.964;7.982;2022-07-22T21:38:45;96828.41;;;25.40;49.39
48390;BME280;34643;47.964;7.982;2022-07-22T21:43:45;96837.00;;;25.34;49.50
48390;BME280;34643;47.964;7.982;2022-07-22T21:48:45;96853.34;;;25.38;49.68
48390;BME280;34643;47.964;7.982;2022-07-22T21:53:45;96838.16;;;25.32;50.83
48390;BME280;34643;47.964;7.982;2022-07-22T21:58:46;96845.88;;;25.33;50.52
48390;BME280;34643;47.964;7.982;2022-07-22T22:03:46;96842.75;;;25.30;50.53
48390;BME280;34643;47.964;7.982;2022-07-22T22:08:46;96817.66;;;25.26;50.67
48390;BME280;34643;47.964;7.982;2022-07-22T22:13:47;96798.19;;;25.27;50.58
48390;BME280;34643;47.964;7.982;2022-07-22T22:18:47;96796.22;;;25.29;50.32
48390;BME280;34643;47.964;7.982;2022-07-22T22:23:48;96806.63;;;25.30;49.89
48390;BME280;34643;47.964;7.982;2022-07-22T22:28:48;96818.97;;;25.30;49.80
48390;BME280;34643;47.964;7.982;2022-07-22T22:33:49;96829.38;;;25.31;49.55
48390;BME280;34643;47.964;7.982;2022-07-22T22:38:49;96848.38;;;25.27;49.38
48390;BME280;34643;47.964;7.982;2022-07-22T22:43:50;96851.03;;;25.27;49.13
48390;BME280;34643;47.964;7.982;2022-07-22T22:48:51;96819.31;;;25.27;49.12
48390;BME280;34643;47.964;7.982;2022-07-22T22:53:51;96808.09;;;25.25;48.94
48390;BME280;34643;47.964;7.982;2022-07-22T22:58:51;96833.19;;;25.29;48.87
48390;BME280;34643;47.964;7.982;2022-07-22T23:03:52;96836.00;;;25.27;49.01
48390;BME280;34643;47.964;7.982;2022-07-22T23:08:52;96826.25;;;25.28;48.81
48390;BME280;34643;47.964;7.982;2022-07-22T23:13:53;96798.53;;;25.32;48.73
48390;BME280;34643;47.964;7.982;2022-07-22T23:18:54;96806.78;;;25.29;48.79
48390;BME280;34643;47.964;7.982;2022-07-22T23:23:55;96796.03;;;25.30;49.08
48390;BME280;34643;47.964;7.982;2022-07-22T23:28:55;96827.91;;;25.29;49.80
48390;BME280;34643;47.964;7.982;2022-07-22T23:33:55;96818.28;;;25.19;51.10
48390;BME280;34643;47.964;7.982;2022-07-22T23:38:57;96788.72;;;25.24;50.54
48390;BME280;34643;47.964;7.982;2022-07-22T23:43:57;96811.41;;;25.27;50.86
48390;BME280;34643;47.964;7.982;2022-07-22T23:48:57;96757.72;;;25.18;50.77
48390;BME280;34643;47.964;7.982;2022-07-22T23:53:58;96731.78;;;25.13;51.17
48390;BME280;34643;47.964;7.982;2022-07-22T23:59:00;96712.81;;;25.18;51.47
